sensor_id;sensor_type;location;lat;lon;timestamp;temperature;humidity
44271;DHT22;29963;44.594;11.368;2022-11-03T00:01:56;16.00;99.90
44271;DHT22;29963;44.594;11.368;2022-11-03T00:04:22;16.00;99.90
44271;DHT22;29963;44.594;11.368;2022-11-03T00:06:50;16.00;99.90
44271;DHT22;29963;44.594;11.368;2022-11-03T00:09:17;16.00;99.90
44271;DHT22;29963;44.594;11.368;2022-11-03T00:11:45;15.90;99.90
44271;DHT22;29963;44.594;11.368;2022-11-03T00:14:11;15.90;99.90
44271;DHT22;29963;44.594;11.368;2022-11-03T00:16:39;15.80;99.90
44271;DHT22;29963;44.594;11.368;2022-11-03T00:19:06;15.80;99.90
44271;DHT22;29963;44.594;11.368;2022-11-03T00:21:32;15.80;99.90
44271;DHT22;29963;44.594;11.368;2022-11-03T00:23:58;15.90;99.90
44271;DHT22;29963;44.594;11.368;2022-11-03T00:26:28;15.90;99.90
44271;DHT22;29963;44.594;11.368;2022-11-03T00:28:56;15.90;99.90
44271;DHT22;29963;44.594;11.368;2022-11-03T00:31:24;15.80;99.90
44271;DHT22;29963;44.594;11.368;2022-11-03T00:33:51;15.80;99.90
44271;DHT22;29963;44.594;11.368;2022-11-03T00:36:19;15.80;99.90
44271;DHT22;29963;44.594;11.368;2022-11-03T00:38:45;15.80;99.90
44271;DHT22;29963;44.594;11.368;2022-11-03T00:41:12;15.70;99.90
44271;DHT22;29963;44.594;11.368;2022-11-03T00:43:39;15.70;99.90
44271;DHT22;29963;44.594;11.368;2022-11-03T00:46:06;15.60;99.90
44271;DHT22;29963;44.594;11.368;2022-11-03T00:48:33;15.50;99.90
44271;DHT22;29963;44.594;11.368;2022-11-03T00:53:25;15.40;99.90
44271;DHT22;29963;44.594;11.368;2022-11-03T00:55:50;15.50;99.90
44271;DHT22;29963;44.594;11.368;2022-11-03T00:58:16;15.50;99.90
44271;DHT22;29963;44.594;11.368;2022-11-03T01:00:42;15.50;99.90
44271;DHT22;29963;44.594;11.368;2022-11-03T01:03:07;15.50;99.90
44271;DHT22;29963;44.594;11.368;2022-11-03T01:05:33;15.50;99.90
44271;DHT22;29963;44.594;11.368;2022-11-03T01:08:17;15.50;99.90
44271;DHT22;29963;44.594;11.368;2022-11-03T01:10:43;15.40;99.90
44271;DHT22;29963;44.594;11.368;2022-11-03T01:13:28;15.50;99.90
44271;DHT22;29963;44.594;11.368;2022-11-03T01:15:57;15.50;99.90
44271;DHT22;29963;44.594;11.368;2022-11-03T01:18:23;15.50;99.90
44271;DHT22;29963;44.594;11.368;2022-11-03T01:20:55;15.50;99.90
44271;DHT22;29963;44.594;11.368;2022-11-03T01:23:22;15.50;99.90
44271;DHT22;29963;44.594;11.368;2022-11-03T01:25:49;15.40;99.90
44271;DHT22;29963;44.594;11.368;2022-11-03T01:28:15;15.50;99.90
44271;DHT22;29963;44.594;11.368;2022-11-03T01:30:41;15.50;99.90
44271;DHT22;29963;44.594;11.368;2022-11-03T01:33:06;15.60;99.90
44271;DHT22;29963;44.594;11.368;2022-11-03T01:35:32;15.60;99.90
44271;DHT22;29963;44.594;11.368;2022-11-03T01:37:58;15.60;99.90
44271;DHT22;29963;44.594;11.368;2022-11-03T01:40:23;15.70;99.90
44271;DHT22;29963;44.594;11.368;2022-11-03T01:42:49;15.70;99.90
44271;DHT22;29963;44.594;11.368;2022-11-03T01:45:15;15.70;99.90
44271;DHT22;29963;44.594;11.368;2022-11-03T01:47:44;15.80;99.90
44271;DHT22;29963;44.594;11.368;2022-11-03T01:50:14;15.80;99.90
44271;DHT22;29963;44.594;11.368;2022-11-03T01:52:56;15.80;99.90
44271;DHT22;29963;44.594;11.368;2022-11-03T01:55:28;15.80;99.90
44271;DHT22;29963;44.594;11.368;2022-11-03T01:58:04;15.80;99.90
44271;DHT22;29963;44.594;11.368;2022-11-03T02:00:31;15.80;99.90
44271;DHT22;29963;44.594;11.368;2022-11-03T02:02:57;15.80;99.90
44271;DHT22;29963;44.594;11.368;2022-11-03T02:05:27;15.80;99.90
44271;DHT22;29963;44.594;11.368;2022-11-03T02:07:57;15.80;99.90
44271;DHT22;29963;44.594;11.368;2022-11-03T02:10:24;15.90;99.90
44271;DHT22;29963;44.594;11.368;2022-11-03T02:12:50;15.90;99.90
44271;DHT22;29963;44.594;11.368;2022-11-03T02:15:18;15.90;99.90
44271;DHT22;29963;44.594;11.368;2022-11-03T02:17:47;15.80;99.90
44271;DHT22;29963;44.594;11.368;2022-11-03T02:20:21;15.80;99.90
44271;DHT22;29963;44.594;11.368;2022-11-03T02:22:55;15.70;99.90
44271;DHT22;29963;44.594;11.368;2022-11-03T02:28:04;15.70;99.90
44271;DHT22;29963;44.594;11.368;2022-11-03T02:33:38;15.60;99.90
44271;DHT22;29963;44.594;11.368;2022-11-03T02:36:11;15.70;99.90
44271;DHT22;29963;44.594;11.368;2022-11-03T02:38:44;15.70;99.90
44271;DHT22;29963;44.594;11.368;2022-11-03T02:41:11;15.70;99.90
44271;DHT22;29963;44.594;11.368;2022-11-03T02:43:42;15.70;99.90
44271;DHT22;29963;44.594;11.368;2022-11-03T02:46:10;15.70;99.90
44271;DHT22;29963;44.594;11.368;2022-11-03T02:48:37;15.70;99.90
44271;DHT22;29963;44.594;11.368;2022-11-03T02:51:03;15.70;99.90
44271;DHT22;29963;44.594;11.368;2022-11-03T02:53:29;15.60;99.90
44271;DHT22;29963;44.594;11.368;2022-11-03T02:56:25;15.70;99.90
44271;DHT22;29963;44.594;11.368;2022-11-03T02:58:58;15.70;99.90
44271;DHT22;29963;44.594;11.368;2022-11-03T03:01:31;15.70;99.90
44271;DHT22;29963;44.594;11.368;2022-11-03T03:06:54;15.70;99.90
44271;DHT22;29963;44.594;11.368;2022-11-03T03:09:24;15.70;99.90
44271;DHT22;29963;44.594;11.368;2022-11-03T03:11:52;15.70;99.90
44271;DHT22;29963;44.594;11.368;2022-11-03T03:14:32;15.60;99.90
44271;DHT22;29963;44.594;11.368;2022-11-03T03:17:08;15.60;99.90
44271;DHT22;29963;44.594;11.368;2022-11-03T03:24:52;15.60;99.90
44271;DHT22;29963;44.594;11.368;2022-11-03T03:27:24;15.50;99.90
44271;DHT22;29963;44.594;11.368;2022-11-03T03:29:57;15.50;99.90
44271;DHT22;29963;44.594;11.368;2022-11-03T03:32:25;15.50;99.90
44271;DHT22;29963;44.594;11.368;2022-11-03T03:34:53;15.50;99.90
44271;DHT22;29963;44.594;11.368;2022-11-03T03:37:22;15.60;99.90
44271;DHT22;29963;44.594;11.368;2022-11-03T03:39:51;15.60;99.90
44271;DHT22;29963;44.594;11.368;2022-11-03T03:42:20;15.60;99.90
44271;DHT22;29963;44.594;11.368;2022-11-03T03:44:48;15.50;99.90
44271;DHT22;29963;44.594;11.368;2022-11-03T03:47:25;15.50;99.90
44271;DHT22;29963;44.594;11.368;2022-11-03T03:49:52;15.50;99.90
44271;DHT22;29963;44.594;11.368;2022-11-03T03:52:18;15.50;99.90
44271;DHT22;29963;44.594;11.368;2022-11-03T03:54:44;15.40;99.90
44271;DHT22;29963;44.594;11.368;2022-11-03T03:57:15;15.30;99.90
44271;DHT22;29963;44.594;11.368;2022-11-03T03:59:44;15.40;99.90
44271;DHT22;29963;44.594;11.368;2022-11-03T04:02:11;15.40;99.90
44271;DHT22;29963;44.594;11.368;2022-11-03T04:04:37;15.50;99.90
44271;DHT22;29963;44.594;11.368;2022-11-03T04:07:03;15.50;99.90
44271;DHT22;29963;44.594;11.368;2022-11-03T04:09:50;15.60;99.90
44271;DHT22;29963;44.594;11.368;2022-11-03T04:12:16;15.60;99.90
44271;DHT22;29963;44.594;11.368;2022-11-03T04:15:00;15.60;99.90
44271;DHT22;29963;44.594;11.368;2022-11-03T04:17:46;15.60;99.90
44271;DHT22;29963;44.594;11.368;2022-11-03T04:20:30;15.60;99.90
44271;DHT22;29963;44.594;11.368;2022-11-03T04:23:14;15.60;99.90
44271;DHT22;29963;44.594;11.368;2022-11-03T04:25:41;15.50;99.90
44271;DHT22;29963;44.594;11.368;2022-11-03T04:28:13;15.50;99.90
44271;DHT22;29963;44.594;11.368;2022-11-03T04:30:40;15.50;99.90
44271;DHT22;29963;44.594;11.368;2022-11-03T04:33:16;15.50;99.90
44271;DHT22;29963;44.594;11.368;2022-11-03T04:35:43;15.40;99.90
44271;DHT22;29963;44.594;11.368;2022-11-03T04:40:49;15.40;99.90
44271;DHT22;29963;44.594;11.368;2022-11-03T04:43:18;15.40;99.90
44271;DHT22;29963;44.594;11.368;2022-11-03T04:45:45;15.40;99.90
44271;DHT22;29963;44.594;11.368;2022-11-03T04:48:18;15.40;99.90
44271;DHT22;29963;44.594;11.368;2022-11-03T04:50:45;15.40;99.90
44271;DHT22;29963;44.594;11.368;2022-11-03T04:53:21;15.40;99.90
44271;DHT22;29963;44.594;11.368;2022-11-03T04:55:50;15.40;99.90
44271;DHT22;29963;44.594;11.368;2022-11-03T04:58:25;15.40;99.90
44271;DHT22;29963;44.594;11.368;2022-11-03T05:00:53;15.40;99.90
44271;DHT22;29963;44.594;11.368;2022-11-03T05:03:47;15.30;99.90
44271;DHT22;29963;44.594;11.368;2022-11-03T05:06:19;15.30;99.90
44271;DHT22;29963;44.594;11.368;2022-11-03T05:08:57;15.40;99.90
44271;DHT22;29963;44.594;11.368;2022-11-03T05:13:51;15.30;99.90
44271;DHT22;29963;44.594;11.368;2022-11-03T05:16:17;15.30;99.90
44271;DHT22;29963;44.594;11.368;2022-11-03T05:18:46;15.30;99.90
44271;DHT22;29963;44.594;11.368;2022-11-03T05:21:15;15.40;99.90
44271;DHT22;29963;44.594;11.368;2022-11-03T05:23:53;15.40;99.90
44271;DHT22;29963;44.594;11.368;2022-11-03T05:26:24;15.30;99.90
44271;DHT22;29963;44.594;11.368;2022-11-03T05:29:20;15.40;99.90
44271;DHT22;29963;44.594;11.368;2022-11-03T05:31:48;15.50;99.90
44271;DHT22;29963;44.594;11.368;2022-11-03T05:34:34;15.50;99.90
44271;DHT22;29963;44.594;11.368;2022-11-03T05:37:24;15.50;99.90
44271;DHT22;29963;44.594;11.368;2022-11-03T05:39:51;15.50;99.90
44271;DHT22;29963;44.594;11.368;2022-11-03T05:44:46;15.50;99.90
44271;DHT22;29963;44.594;11.368;2022-11-03T05:47:19;15.50;99.90
44271;DHT22;29963;44.594;11.368;2022-11-03T05:49:50;15.40;99.90
44271;DHT22;29963;44.594;11.368;2022-11-03T05:52:21;15.40;99.90
44271;DHT22;29963;44.594;11.368;2022-11-03T05:54:48;15.40;99.90
44271;DHT22;29963;44.594;11.368;2022-11-03T05:57:15;15.40;99.90
44271;DHT22;29963;44.594;11.368;2022-11-03T05:59:43;15.40;99.90
44271;DHT22;29963;44.594;11.368;2022-11-03T06:02:39;15.40;99.90
44271;DHT22;29963;44.594;11.368;2022-11-03T06:05:19;15.30;99.90
44271;DHT22;29963;44.594;11.368;2022-11-03T06:07:46;15.30;99.90
44271;DHT22;29963;44.594;11.368;2022-11-03T06:12:46;15.40;99.90
44271;DHT22;29963;44.594;11.368;2022-11-03T06:15:33;15.40;99.90
44271;DHT22;29963;44.594;11.368;2022-11-03T06:18:09;15.40;99.90
44271;DHT22;29963;44.594;11.368;2022-11-03T06:20:38;15.30;99.90
44271;DHT22;29963;44.594;11.368;2022-11-03T06:23:07;15.30;99.90
44271;DHT22;29963;44.594;11.368;2022-11-03T06:25:35;15.30;99.90
44271;DHT22;29963;44.594;11.368;2022-11-03T06:28:08;15.30;99.90
44271;DHT22;29963;44.594;11.368;2022-11-03T06:30:39;15.30;99.90
44271;DHT22;29963;44.594;11.368;2022-11-03T06:33:29;15.30;99.90
44271;DHT22;29963;44.594;11.368;2022-11-03T06:36:07;15.30;99.90
44271;DHT22;29963;44.594;11.368;2022-11-03T06:38:35;15.30;99.90
44271;DHT22;29963;44.594;11.368;2022-11-03T06:41:00;15.40;99.90
44271;DHT22;29963;44.594;11.368;2022-11-03T06:43:40;15.50;99.90
44271;DHT22;29963;44.594;11.368;2022-11-03T06:46:21;15.50;99.90
44271;DHT22;29963;44.594;11.368;2022-11-03T06:48:48;15.50;99.90
44271;DHT22;29963;44.594;11.368;2022-11-03T06:51:21;15.50;99.90
44271;DHT22;29963;44.594;11.368;2022-11-03T06:53:52;15.50;99.90
44271;DHT22;29963;44.594;11.368;2022-11-03T06:56:24;15.50;99.90
44271;DHT22;29963;44.594;11.368;2022-11-03T06:58:54;15.50;99.90
44271;DHT22;29963;44.594;11.368;2022-11-03T07:01:28;15.60;99.90
44271;DHT22;29963;44.594;11.368;2022-11-03T07:04:04;15.50;99.90
44271;DHT22;29963;44.594;11.368;2022-11-03T07:06:36;15.60;99.90
44271;DHT22;29963;44.594;11.368;2022-11-03T07:09:04;15.60;99.90
44271;DHT22;29963;44.594;11.368;2022-11-03T07:11:34;15.60;99.90
44271;DHT22;29963;44.594;11.368;2022-11-03T07:19:22;15.70;99.90
44271;DHT22;29963;44.594;11.368;2022-11-03T07:21:52;15.70;99.90
44271;DHT22;29963;44.594;11.368;2022-11-03T07:24:21;15.60;99.90
44271;DHT22;29963;44.594;11.368;2022-11-03T07:26:53;15.60;99.90
44271;DHT22;29963;44.594;11.368;2022-11-03T07:29:21;15.60;99.90
44271;DHT22;29963;44.594;11.368;2022-11-03T07:31:48;15.60;99.90
44271;DHT22;29963;44.594;11.368;2022-11-03T07:34:20;15.60;99.90
44271;DHT22;29963;44.594;11.368;2022-11-03T07:36:47;15.60;99.90
44271;DHT22;29963;44.594;11.368;2022-11-03T07:39:17;15.50;99.90
44271;DHT22;29963;44.594;11.368;2022-11-03T07:41:44;15.50;99.90
44271;DHT22;29963;44.594;11.368;2022-11-03T07:44:15;15.50;99.90
44271;DHT22;29963;44.594;11.368;2022-11-03T07:46:45;15.60;99.90
44271;DHT22;29963;44.594;11.368;2022-11-03T07:49:25;15.60;99.90
44271;DHT22;29963;44.594;11.368;2022-11-03T07:51:51;15.70;99.90
44271;DHT22;29963;44.594;11.368;2022-11-03T07:54:22;15.70;99.90
44271;DHT22;29963;44.594;11.368;2022-11-03T07:59:37;15.70;99.90
44271;DHT22;29963;44.594;11.368;2022-11-03T08:02:28;15.70;99.90
44271;DHT22;29963;44.594;11.368;2022-11-03T08:04:55;15.70;99.90
44271;DHT22;29963;44.594;11.368;2022-11-03T08:07:21;15.70;99.90
44271;DHT22;29963;44.594;11.368;2022-11-03T08:09:46;15.80;99.90
44271;DHT22;29963;44.594;11.368;2022-11-03T08:12:12;15.80;99.90
44271;DHT22;29963;44.594;11.368;2022-11-03T08:14:38;15.80;99.90
44271;DHT22;29963;44.594;11.368;2022-11-03T08:17:04;15.80;99.90
44271;DHT22;29963;44.594;11.368;2022-11-03T08:19:29;15.90;99.90
44271;DHT22;29963;44.594;11.368;2022-11-03T08:21:55;15.90;99.90
44271;DHT22;29963;44.594;11.368;2022-11-03T08:24:21;15.90;99.90
44271;DHT22;29963;44.594;11.368;2022-11-03T08:26:47;15.90;99.90
44271;DHT22;29963;44.594;11.368;2022-11-03T08:29:12;15.90;99.90
44271;DHT22;29963;44.594;11.368;2022-11-03T08:31:38;16.00;99.90
44271;DHT22;29963;44.594;11.368;2022-11-03T08:34:04;16.00;99.90
44271;DHT22;29963;44.594;11.368;2022-11-03T08:36:30;16.00;99.90
44271;DHT22;29963;44.594;11.368;2022-11-03T08:38:56;16.00;99.90
44271;DHT22;29963;44.594;11.368;2022-11-03T08:41:21;16.00;99.90
44271;DHT22;29963;44.594;11.368;2022-11-03T08:43:47;16.10;99.90
44271;DHT22;29963;44.594;11.368;2022-11-03T08:46:12;16.00;99.90
44271;DHT22;29963;44.594;11.368;2022-11-03T08:48:38;16.10;99.90
44271;DHT22;29963;44.594;11.368;2022-11-03T08:51:04;16.10;99.90
44271;DHT22;29963;44.594;11.368;2022-11-03T08:53:30;16.20;99.90
44271;DHT22;29963;44.594;11.368;2022-11-03T08:55:55;16.20;99.90
44271;DHT22;29963;44.594;11.368;2022-11-03T08:58:22;16.20;99.90
44271;DHT22;29963;44.594;11.368;2022-11-03T09:00:48;16.20;99.90
44271;DHT22;29963;44.594;11.368;2022-11-03T09:03:14;16.20;99.90
44271;DHT22;29963;44.594;11.368;2022-11-03T09:05:40;16.20;99.90
44271;DHT22;29963;44.594;11.368;2022-11-03T09:08:06;16.30;99.90
44271;DHT22;29963;44.594;11.368;2022-11-03T09:10:31;16.30;99.90
44271;DHT22;29963;44.594;11.368;2022-11-03T09:12:57;16.40;99.90
44271;DHT22;29963;44.594;11.368;2022-11-03T09:15:23;16.40;99.90
44271;DHT22;29963;44.594;11.368;2022-11-03T09:17:48;16.40;99.90
44271;DHT22;29963;44.594;11.368;2022-11-03T09:20:15;16.50;99.90
44271;DHT22;29963;44.594;11.368;2022-11-03T09:22:40;16.50;99.90
44271;DHT22;29963;44.594;11.368;2022-11-03T09:25:06;16.60;99.90
44271;DHT22;29963;44.594;11.368;2022-11-03T09:27:32;16.60;99.90
44271;DHT22;29963;44.594;11.368;2022-11-03T09:29:58;16.70;99.90
44271;DHT22;29963;44.594;11.368;2022-11-03T09:32:24;16.80;99.90
44271;DHT22;29963;44.594;11.368;2022-11-03T09:34:50;16.90;99.90
44271;DHT22;29963;44.594;11.368;2022-11-03T09:37:18;17.00;99.90
44271;DHT22;29963;44.594;11.368;2022-11-03T09:39:44;17.10;99.90
44271;DHT22;29963;44.594;11.368;2022-11-03T09:42:11;17.10;99.90
44271;DHT22;29963;44.594;11.368;2022-11-03T09:44:37;17.10;99.90
44271;DHT22;29963;44.594;11.368;2022-11-03T09:47:04;17.20;99.90
44271;DHT22;29963;44.594;11.368;2022-11-03T09:49:31;17.30;99.90
44271;DHT22;29963;44.594;11.368;2022-11-03T09:52:02;17.30;99.90
44271;DHT22;29963;44.594;11.368;2022-11-03T09:54:28;17.40;99.90
44271;DHT22;29963;44.594;11.368;2022-11-03T09:56:57;17.40;99.90
44271;DHT22;29963;44.594;11.368;2022-11-03T09:59:26;17.40;99.90
44271;DHT22;29963;44.594;11.368;2022-11-03T10:01:52;17.40;99.90
44271;DHT22;29963;44.594;11.368;2022-11-03T10:04:26;17.40;99.90
44271;DHT22;29963;44.594;11.368;2022-11-03T10:06:56;17.30;99.90
44271;DHT22;29963;44.594;11.368;2022-11-03T10:09:23;17.30;99.90
44271;DHT22;29963;44.594;11.368;2022-11-03T10:11:54;17.30;99.90
44271;DHT22;29963;44.594;11.368;2022-11-03T10:14:20;17.30;99.90
44271;DHT22;29963;44.594;11.368;2022-11-03T10:16:54;17.30;99.90
44271;DHT22;29963;44.594;11.368;2022-11-03T10:19:22;17.30;99.90
44271;DHT22;29963;44.594;11.368;2022-11-03T10:21:48;17.20;99.90
44271;DHT22;29963;44.594;11.368;2022-11-03T10:24:15;17.20;99.90
44271;DHT22;29963;44.594;11.368;2022-11-03T10:26:46;17.20;99.90
44271;DHT22;29963;44.594;11.368;2022-11-03T10:29:30;17.20;99.90
44271;DHT22;29963;44.594;11.368;2022-11-03T10:31:58;17.20;99.90
44271;DHT22;29963;44.594;11.368;2022-11-03T10:34:35;17.20;99.90
44271;DHT22;29963;44.594;11.368;2022-11-03T10:37:16;17.30;99.90
44271;DHT22;29963;44.594;11.368;2022-11-03T10:39:43;17.30;99.90
44271;DHT22;29963;44.594;11.368;2022-11-03T10:42:26;17.30;99.90
44271;DHT22;29963;44.594;11.368;2022-11-03T10:45:14;17.30;99.90
44271;DHT22;29963;44.594;11.368;2022-11-03T10:47:42;17.30;99.90
44271;DHT22;29963;44.594;11.368;2022-11-03T10:50:28;17.30;99.90
44271;DHT22;29963;44.594;11.368;2022-11-03T10:52:53;17.30;99.90
44271;DHT22;29963;44.594;11.368;2022-11-03T10:55:21;17.40;99.90
44271;DHT22;29963;44.594;11.368;2022-11-03T10:57:51;17.30;99.90
44271;DHT22;29963;44.594;11.368;2022-11-03T11:00:20;17.30;99.90
44271;DHT22;29963;44.594;11.368;2022-11-03T11:02:46;17.30;99.90
44271;DHT22;29963;44.594;11.368;2022-11-03T11:07:39;17.30;99.90
44271;DHT22;29963;44.594;11.368;2022-11-03T11:10:28;17.20;99.90
44271;DHT22;29963;44.594;11.368;2022-11-03T11:15:47;17.20;99.90
44271;DHT22;29963;44.594;11.368;2022-11-03T11:20:58;17.30;99.90
44271;DHT22;29963;44.594;11.368;2022-11-03T11:33:47;17.30;99.90
44271;DHT22;29963;44.594;11.368;2022-11-03T11:36:24;17.40;99.90
44271;DHT22;29963;44.594;11.368;2022-11-03T11:41:21;17.50;99.90
44271;DHT22;29963;44.594;11.368;2022-11-03T11:47:23;17.60;99.90
44271;DHT22;29963;44.594;11.368;2022-11-03T11:50:16;17.60;99.90
44271;DHT22;29963;44.594;11.368;2022-11-03T11:53:21;17.60;99.90
44271;DHT22;29963;44.594;11.368;2022-11-03T11:55:58;17.60;99.90
44271;DHT22;29963;44.594;11.368;2022-11-03T11:58:53;17.60;99.90
44271;DHT22;29963;44.594;11.368;2022-11-03T12:01:35;17.60;99.90
44271;DHT22;29963;44.594;11.368;2022-11-03T12:04:16;17.70;99.90
44271;DHT22;29963;44.594;11.368;2022-11-03T12:06:43;17.80;99.90
44271;DHT22;29963;44.594;11.368;2022-11-03T12:11:42;17.90;99.90
44271;DHT22;29963;44.594;11.368;2022-11-03T12:16:49;17.90;99.90
44271;DHT22;29963;44.594;11.368;2022-11-03T12:19:34;17.90;99.90
44271;DHT22;29963;44.594;11.368;2022-11-03T12:22:01;17.90;99.90
44271;DHT22;29963;44.594;11.368;2022-11-03T17:23:21;17.10;99.90
44271;DHT22;29963;44.594;11.368;2022-11-03T17:25:46;17.10;99.90
44271;DHT22;29963;44.594;11.368;2022-11-03T17:28:12;17.10;99.90
44271;DHT22;29963;44.594;11.368;2022-11-03T17:30:39;17.10;99.90
44271;DHT22;29963;44.594;11.368;2022-11-03T17:33:06;17.10;99.90
44271;DHT22;29963;44.594;11.368;2022-11-03T17:35:41;17.10;99.90
44271;DHT22;29963;44.594;11.368;2022-11-03T17:38:13;17.20;99.90
44271;DHT22;29963;44.594;11.368;2022-11-03T17:40:46;17.20;99.90
44271;DHT22;29963;44.594;11.368;2022-11-03T17:43:21;17.20;99.90
44271;DHT22;29963;44.594;11.368;2022-11-03T17:45:47;17.20;99.90
44271;DHT22;29963;44.594;11.368;2022-11-03T17:48:13;17.20;99.90
44271;DHT22;29963;44.594;11.368;2022-11-03T17:50:46;17.20;99.90
44271;DHT22;29963;44.594;11.368;2022-11-03T17:53:23;17.20;99.90
44271;DHT22;29963;44.594;11.368;2022-11-03T17:55:49;17.20;99.90
44271;DHT22;29963;44.594;11.368;2022-11-03T17:58:16;17.20;99.90
44271;DHT22;29963;44.594;11.368;2022-11-03T18:00:42;17.20;99.90
44271;DHT22;29963;44.594;11.368;2022-11-03T18:03:11;17.20;99.90
44271;DHT22;29963;44.594;11.368;2022-11-03T18:05:43;17.20;99.90
44271;DHT22;29963;44.594;11.368;2022-11-03T18:08:10;17.20;99.90
44271;DHT22;29963;44.594;11.368;2022-11-03T18:10:41;17.20;99.90
44271;DHT22;29963;44.594;11.368;2022-11-03T18:13:23;17.20;99.90
44271;DHT22;29963;44.594;11.368;2022-11-03T18:15:50;17.20;99.90
44271;DHT22;29963;44.594;11.368;2022-11-03T18:18:39;17.20;99.90
44271;DHT22;29963;44.594;11.368;2022-11-03T18:21:16;17.20;99.90
44271;DHT22;29963;44.594;11.368;2022-11-03T18:23:42;17.10;99.90
44271;DHT22;29963;44.594;11.368;2022-11-03T18:26:18;17.20;99.90
44271;DHT22;29963;44.594;11.368;2022-11-03T18:28:44;17.10;99.90
44271;DHT22;29963;44.594;11.368;2022-11-03T18:33:43;17.10;99.90
44271;DHT22;29963;44.594;11.368;2022-11-03T18:36:10;17.10;99.90
44271;DHT22;29963;44.594;11.368;2022-11-03T18:38:40;17.10;99.90
44271;DHT22;29963;44.594;11.368;2022-11-03T18:41:17;17.10;99.90
44271;DHT22;29963;44.594;11.368;2022-11-03T18:44:25;17.10;99.90
44271;DHT22;29963;44.594;11.368;2022-11-03T18:46:52;17.10;99.90
44271;DHT22;29963;44.594;11.368;2022-11-03T18:49:22;17.10;99.90
44271;DHT22;29963;44.594;11.368;2022-11-03T18:51:53;17.10;99.90
44271;DHT22;29963;44.594;11.368;2022-11-03T18:54:21;17.10;99.90
44271;DHT22;29963;44.594;11.368;2022-11-03T18:56:48;17.10;99.90
44271;DHT22;29963;44.594;11.368;2022-11-03T18:59:34;17.10;99.90
44271;DHT22;29963;44.594;11.368;2022-11-03T19:02:05;17.10;99.90
44271;DHT22;29963;44.594;11.368;2022-11-03T19:04:31;17.10;99.90
44271;DHT22;29963;44.594;11.368;2022-11-03T19:06:57;17.00;99.90
44271;DHT22;29963;44.594;11.368;2022-11-03T19:09:24;17.00;99.90
44271;DHT22;29963;44.594;11.368;2022-11-03T19:11:53;17.00;99.90
44271;DHT22;29963;44.594;11.368;2022-11-03T19:14:31;17.00;99.90
44271;DHT22;29963;44.594;11.368;2022-11-03T19:17:04;17.00;99.90
44271;DHT22;29963;44.594;11.368;2022-11-03T19:19:31;17.00;99.90
44271;DHT22;29963;44.594;11.368;2022-11-03T19:21:57;17.00;99.90
44271;DHT22;29963;44.594;11.368;2022-11-03T19:24:22;17.00;99.90
44271;DHT22;29963;44.594;11.368;2022-11-03T19:26:56;17.00;99.90
44271;DHT22;29963;44.594;11.368;2022-11-03T19:29:26;17.00;99.90
44271;DHT22;29963;44.594;11.368;2022-11-03T19:31:53;17.00;99.90
44271;DHT22;29963;44.594;11.368;2022-11-03T19:34:24;17.00;99.90
44271;DHT22;29963;44.594;11.368;2022-11-03T19:36:51;17.00;99.90
44271;DHT22;29963;44.594;11.368;2022-11-03T19:41:51;16.90;99.90
44271;DHT22;29963;44.594;11.368;2022-11-03T19:44:35;16.90;99.90
44271;DHT22;29963;44.594;11.368;2022-11-03T19:47:02;16.90;99.90
44271;DHT22;29963;44.594;11.368;2022-11-03T19:49:28;16.90;99.90
44271;DHT22;29963;44.594;11.368;2022-11-03T19:51:54;16.90;99.90
44271;DHT22;29963;44.594;11.368;2022-11-03T19:54:20;16.80;99.90
44271;DHT22;29963;44.594;11.368;2022-11-03T19:56:46;16.80;99.90
44271;DHT22;29963;44.594;11.368;2022-11-03T19:59:14;16.80;99.90
44271;DHT22;29963;44.594;11.368;2022-11-03T20:01:40;16.80;99.90
44271;DHT22;29963;44.594;11.368;2022-11-03T20:04:06;16.80;99.90
44271;DHT22;29963;44.594;11.368;2022-11-03T20:06:32;16.80;99.90
44271;DHT22;29963;44.594;11.368;2022-11-03T20:09:00;16.70;99.90
44271;DHT22;29963;44.594;11.368;2022-11-03T20:11:31;16.70;99.90
44271;DHT22;29963;44.594;11.368;2022-11-03T20:13:57;16.70;99.90
44271;DHT22;29963;44.594;11.368;2022-11-03T20:16:23;16.70;99.90
44271;DHT22;29963;44.594;11.368;2022-11-03T20:18:49;16.70;99.90
44271;DHT22;29963;44.594;11.368;2022-11-03T20:21:16;16.70;99.90
44271;DHT22;29963;44.594;11.368;2022-11-03T20:23:45;16.60;99.90
44271;DHT22;29963;44.594;11.368;2022-11-03T20:26:20;16.60;99.90
44271;DHT22;29963;44.594;11.368;2022-11-03T20:28:47;16.60;99.90
44271;DHT22;29963;44.594;11.368;2022-11-03T20:31:14;16.60;99.90
44271;DHT22;29963;44.594;11.368;2022-11-03T20:33:40;16.60;99.90
44271;DHT22;29963;44.594;11.368;2022-11-03T20:36:09;16.60;99.90
44271;DHT22;29963;44.594;11.368;2022-11-03T20:38:35;16.60;99.90
44271;DHT22;29963;44.594;11.368;2022-11-03T20:41:12;16.60;99.90
44271;DHT22;29963;44.594;11.368;2022-11-03T20:43:41;16.60;99.90
44271;DHT22;29963;44.594;11.368;2022-11-03T20:46:31;16.50;99.90
44271;DHT22;29963;44.594;11.368;2022-11-03T20:48:58;16.50;99.90
44271;DHT22;29963;44.594;11.368;2022-11-03T20:51:29;16.50;99.90
44271;DHT22;29963;44.594;11.368;2022-11-03T20:53:55;16.50;99.90
44271;DHT22;29963;44.594;11.368;2022-11-03T20:56:23;16.50;99.90
44271;DHT22;29963;44.594;11.368;2022-11-03T20:58:50;16.50;99.90
44271;DHT22;29963;44.594;11.368;2022-11-03T21:03:48;16.50;99.90
44271;DHT22;29963;44.594;11.368;2022-11-03T21:06:16;16.50;99.90
44271;DHT22;29963;44.594;11.368;2022-11-03T21:08:43;16.50;99.90
44271;DHT22;29963;44.594;11.368;2022-11-03T21:11:20;16.50;99.90
44271;DHT22;29963;44.594;11.368;2022-11-03T21:13:51;16.50;99.90
44271;DHT22;29963;44.594;11.368;2022-11-03T21:16:17;16.50;99.90
44271;DHT22;29963;44.594;11.368;2022-11-03T21:19:04;16.50;99.90
44271;DHT22;29963;44.594;11.368;2022-11-03T21:21:51;16.50;99.90
44271;DHT22;29963;44.594;11.368;2022-11-03T21:24:16;16.50;99.90
44271;DHT22;29963;44.594;11.368;2022-11-03T21:26:42;16.50;99.90
44271;DHT22;29963;44.594;11.368;2022-11-03T21:29:08;16.40;99.90
44271;DHT22;29963;44.594;11.368;2022-11-03T21:31:33;16.40;99.90
44271;DHT22;29963;44.594;11.368;2022-11-03T21:33:59;16.40;99.90
44271;DHT22;29963;44.594;11.368;2022-11-03T21:36:25;16.40;99.90
44271;DHT22;29963;44.594;11.368;2022-11-03T21:38:50;16.50;99.90
44271;DHT22;29963;44.594;11.368;2022-11-03T21:41:16;16.50;99.90
44271;DHT22;29963;44.594;11.368;2022-11-03T21:44:00;16.50;99.90
44271;DHT22;29963;44.594;11.368;2022-11-03T21:46:42;16.40;99.90